sensor_id;sensor_type;location;lat;lon;timestamp;pressure;altitude;pressure_sealevel;temperature;humidity
25560;BME280;13450;49.374;8.584;2023-07-13T00:00:02;100425.06;;;20.21;nan
25560;BME280;13450;49.374;8.584;2023-07-13T00:02:31;100429.06;;;20.19;nan
25560;BME280;13450;49.374;8.584;2023-07-13T00:05:00;100426.13;;;20.20;nan
25560;BME280;13450;49.374;8.584;2023-07-13T00:07:25;100422.84;;;20.18;nan
25560;BME280;13450;49.374;8.584;2023-07-13T00:09:53;100422.34;;;20.21;nan
25560;BME280;13450;49.374;8.584;2023-07-13T00:12:26;100433.22;;;20.21;nan
25560;BME280;13450;49.374;8.584;2023-07-13T00:14:52;100439.13;;;20.18;nan
25560;BME280;13450;49.374;8.584;2023-07-13T00:17:18;100441.94;;;20.23;nan
25560;BME280;13450;49.374;8.584;2023-07-13T00:19:43;100445.97;;;20.21;nan
25560;BME280;13450;49.374;8.584;2023-07-13T00:22:08;100451.88;;;20.18;nan
25560;BME280;13450;49.374;8.584;2023-07-13T00:24:33;100440.94;;;20.12;nan
25560;BME280;13450;49.374;8.584;2023-07-13T00:27:01;100438.47;;;20.11;nan
25560;BME280;13450;49.374;8.584;2023-07-13T00:29:26;100443.09;;;20.10;nan
25560;BME280;13450;49.374;8.584;2023-07-13T00:31:51;100442.19;;;20.05;nan
25560;BME280;13450;49.374;8.584;2023-07-13T00:34:17;100441.06;;;20.01;nan
25560;BME280;13450;49.374;8.584;2023-07-13T00:36:42;100438.00;;;19.97;nan
25560;BME280;13450;49.374;8.584;2023-07-13T00:39:07;100429.75;;;19.92;nan
25560;BME280;13450;49.374;8.584;2023-07-13T00:41:33;100437.31;;;19.90;nan
25560;BME280;13450;49.374;8.584;2023-07-13T00:44:00;100435.03;;;19.81;nan
25560;BME280;13450;49.374;8.584;2023-07-13T00:46:28;100440.13;;;19.78;nan
25560;BME280;13450;49.374;8.584;2023-07-13T00:48:57;100444.25;;;19.80;nan
25560;BME280;13450;49.374;8.584;2023-07-13T00:51:29;100438.22;;;19.78;nan
25560;BME280;13450;49.374;8.584;2023-07-13T00:53:59;100440.63;;;19.74;nan
25560;BME280;13450;49.374;8.584;2023-07-13T00:56:26;100447.97;;;19.74;nan
25560;BME280;13450;49.374;8.584;2023-07-13T00:58:54;100444.88;;;19.70;nan
25560;BME280;13450;49.374;8.584;2023-07-13T01:01:22;100446.69;;;19.65;nan
25560;BME280;13450;49.374;8.584;2023-07-13T01:03:47;100446.59;;;19.59;nan
25560;BME280;13450;49.374;8.584;2023-07-13T01:06:13;100446.03;;;19.57;nan
25560;BME280;13450;49.374;8.584;2023-07-13T01:08:42;100441.84;;;19.50;nan
25560;BME280;13450;49.374;8.584;2023-07-13T01:11:08;100442.56;;;19.45;nan
25560;BME280;13450;49.374;8.584;2023-07-13T01:13:35;100443.88;;;19.42;nan
25560;BME280;13450;49.374;8.584;2023-07-13T01:16:05;100443.19;;;19.35;nan
25560;BME280;13450;49.374;8.584;2023-07-13T01:18:36;100449.13;;;19.32;nan
25560;BME280;13450;49.374;8.584;2023-07-13T01:21:04;100456.81;;;19.23;nan
25560;BME280;13450;49.374;8.584;2023-07-13T01:23:31;100449.91;;;19.15;nan
25560;BME280;13450;49.374;8.584;2023-07-13T01:25:57;100459.84;;;19.10;nan
25560;BME280;13450;49.374;8.584;2023-07-13T01:28:27;100454.28;;;19.04;nan
25560;BME280;13450;49.374;8.584;2023-07-13T01:30:55;100451.00;;;19.02;nan
25560;BME280;13450;49.374;8.584;2023-07-13T01:33:21;100450.66;;;18.99;nan
25560;BME280;13450;49.374;8.584;2023-07-13T01:35:46;100454.91;;;18.94;nan
25560;BME280;13450;49.374;8.584;2023-07-13T01:38:14;100463.75;;;18.90;nan
25560;BME280;13450;49.374;8.584;2023-07-13T01:40:39;100460.22;;;18.89;nan
25560;BME280;13450;49.374;8.584;2023-07-13T01:43:05;100464.25;;;18.87;nan
25560;BME280;13450;49.374;8.584;2023-07-13T01:45:30;100460.59;;;18.81;nan
25560;BME280;13450;49.374;8.584;2023-07-13T01:47:56;100456.97;;;18.75;nan
25560;BME280;13450;49.374;8.584;2023-07-13T01:50:21;100461.34;;;18.64;nan
25560;BME280;13450;49.374;8.584;2023-07-13T01:52:46;100465.38;;;18.62;nan
25560;BME280;13450;49.374;8.584;2023-07-13T01:55:12;100466.91;;;18.58;nan
25560;BME280;13450;49.374;8.584;2023-07-13T01:57:37;100461.63;;;18.51;nan
25560;BME280;13450;49.374;8.584;2023-07-13T02:00:06;100471.03;;;18.48;nan
25560;BME280;13450;49.374;8.584;2023-07-13T02:02:32;100475.41;;;18.49;nan
25560;BME280;13450;49.374;8.584;2023-07-13T02:04:57;100478.34;;;18.36;nan
25560;BME280;13450;49.374;8.584;2023-07-13T02:07:23;100471.06;;;18.36;nan
25560;BME280;13450;49.374;8.584;2023-07-13T02:09:48;100474.94;;;18.28;nan
25560;BME280;13450;49.374;8.584;2023-07-13T02:12:13;100473.19;;;18.22;nan
25560;BME280;13450;49.374;8.584;2023-07-13T02:14:38;100477.63;;;18.16;nan
25560;BME280;13450;49.374;8.584;2023-07-13T02:17:05;100480.94;;;18.19;nan
25560;BME280;13450;49.374;8.584;2023-07-13T02:19:30;100474.34;;;18.14;nan
25560;BME280;13450;49.374;8.584;2023-07-13T02:21:58;100470.25;;;18.12;nan
25560;BME280;13450;49.374;8.584;2023-07-13T02:24:23;100474.81;;;18.11;nan
25560;BME280;13450;49.374;8.584;2023-07-13T02:26:48;100472.41;;;18.03;nan
25560;BME280;13450;49.374;8.584;2023-07-13T02:29:16;100459.00;;;17.96;nan
25560;BME280;13450;49.374;8.584;2023-07-13T02:31:44;100468.66;;;17.92;nan
25560;BME280;13450;49.374;8.584;2023-07-13T02:34:11;100472.66;;;17.89;nan
25560;BME280;13450;49.374;8.584;2023-07-13T02:36:37;100467.47;;;17.88;nan
25560;BME280;13450;49.374;8.584;2023-07-13T02:39:05;100468.53;;;17.87;nan
25560;BME280;13450;49.374;8.584;2023-07-13T02:41:31;100477.72;;;17.86;nan
25560;BME280;13450;49.374;8.584;2023-07-13T02:43:58;100476.28;;;17.83;nan
25560;BME280;13450;49.374;8.584;2023-07-13T02:46:32;100480.28;;;17.81;nan
25560;BME280;13450;49.374;8.584;2023-07-13T02:48:58;100478.28;;;17.76;nan
25560;BME280;13450;49.374;8.584;2023-07-13T02:51:24;100482.50;;;17.72;nan
25560;BME280;13450;49.374;8.584;2023-07-13T02:53:49;100488.13;;;17.70;nan
25560;BME280;13450;49.374;8.584;2023-07-13T02:56:14;100484.00;;;17.68;nan
25560;BME280;13450;49.374;8.584;2023-07-13T02:58:40;100482.97;;;17.69;nan
25560;BME280;13450;49.374;8.584;2023-07-13T03:01:08;100479.66;;;17.67;nan
25560;BME280;13450;49.374;8.584;2023-07-13T03:03:33;100476.38;;;17.64;nan
25560;BME280;13450;49.374;8.584;2023-07-13T03:06:03;100484.50;;;17.64;nan
25560;BME280;13450;49.374;8.584;2023-07-13T03:08:30;100482.25;;;17.61;nan
25560;BME280;13450;49.374;8.584;2023-07-13T03:11:04;100488.50;;;17.62;nan
25560;BME280;13450;49.374;8.584;2023-07-13T03:13:30;100480.59;;;17.60;nan
25560;BME280;13450;49.374;8.584;2023-07-13T03:15:55;100482.69;;;17.58;nan
25560;BME280;13450;49.374;8.584;2023-07-13T03:18:21;100486.59;;;17.62;nan
25560;BME280;13450;49.374;8.584;2023-07-13T03:20:46;100487.66;;;17.61;nan
25560;BME280;13450;49.374;8.584;2023-07-13T03:23:11;100483.97;;;17.56;nan
25560;BME280;13450;49.374;8.584;2023-07-13T03:25:36;100486.66;;;17.44;nan
25560;BME280;13450;49.374;8.584;2023-07-13T03:28:04;100478.06;;;17.35;nan
25560;BME280;13450;49.374;8.584;2023-07-13T03:30:30;100494.38;;;17.28;nan
25560;BME280;13450;49.374;8.584;2023-07-13T03:32:56;100487.03;;;17.17;nan
25560;BME280;13450;49.374;8.584;2023-07-13T03:35:21;100489.72;;;17.17;nan
25560;BME280;13450;49.374;8.584;2023-07-13T03:37:46;100485.25;;;17.10;nan
25560;BME280;13450;49.374;8.584;2023-07-13T03:40:12;100487.53;;;17.07;nan
25560;BME280;13450;49.374;8.584;2023-07-13T03:42:37;100496.50;;;17.07;nan
25560;BME280;13450;49.374;8.584;2023-07-13T03:45:05;100495.88;;;17.05;nan
25560;BME280;13450;49.374;8.584;2023-07-13T03:47:31;100496.94;;;17.04;nan
25560;BME280;13450;49.374;8.584;2023-07-13T03:49:56;100500.03;;;17.08;nan
25560;BME280;13450;49.374;8.584;2023-07-13T03:52:21;100502.03;;;17.12;nan
25560;BME280;13450;49.374;8.584;2023-07-13T03:54:47;100502.03;;;17.12;nan
25560;BME280;13450;49.374;8.584;2023-07-13T03:57:12;100500.75;;;17.15;nan
25560;BME280;13450;49.374;8.584;2023-07-13T03:59:37;100508.16;;;17.08;nan
25560;BME280;13450;49.374;8.584;2023-07-13T04:02:03;100506.69;;;17.05;nan
25560;BME280;13450;49.374;8.584;2023-07-13T04:04:30;100504.59;;;17.07;nan
25560;BME280;13450;49.374;8.584;2023-07-13T04:06:56;100500.63;;;17.10;nan
25560;BME280;13450;49.374;8.584;2023-07-13T04:09:24;100505.44;;;17.08;nan
25560;BME280;13450;49.374;8.584;2023-07-13T04:11:49;100503.69;;;17.13;nan
25560;BME280;13450;49.374;8.584;2023-07-13T04:14:15;100505.34;;;17.15;nan
25560;BME280;13450;49.374;8.584;2023-07-13T04:16:40;100507.44;;;17.12;nan
25560;BME280;13450;49.374;8.584;2023-07-13T04:19:05;100509.56;;;17.10;nan
25560;BME280;13450;49.374;8.584;2023-07-13T04:21:31;100514.28;;;17.15;nan
25560;BME280;13450;49.374;8.584;2023-07-13T04:23:57;100512.19;;;17.17;nan
25560;BME280;13450;49.374;8.584;2023-07-13T04:26:23;100520.22;;;17.24;nan
25560;BME280;13450;49.374;8.584;2023-07-13T04:28:53;100521.16;;;17.30;nan
25560;BME280;13450;49.374;8.584;2023-07-13T04:31:19;100525.28;;;17.32;nan
25560;BME280;13450;49.374;8.584;2023-07-13T04:33:44;100521.31;;;17.35;nan
25560;BME280;13450;49.374;8.584;2023-07-13T04:36:10;100525.28;;;17.32;nan
25560;BME280;13450;49.374;8.584;2023-07-13T04:38:36;100533.16;;;17.34;nan
25560;BME280;13450;49.374;8.584;2023-07-13T04:41:04;100534.16;;;17.39;nan
25560;BME280;13450;49.374;8.584;2023-07-13T04:43:30;100531.78;;;17.43;nan
25560;BME280;13450;49.374;8.584;2023-07-13T04:45:56;100532.53;;;17.50;nan
25560;BME280;13450;49.374;8.584;2023-07-13T04:48:22;100524.56;;;17.56;nan
25560;BME280;13450;49.374;8.584;2023-07-13T04:50:53;100525.53;;;17.61;nan
25560;BME280;13450;49.374;8.584;2023-07-13T04:53:19;100533.78;;;17.67;nan
25560;BME280;13450;49.374;8.584;2023-07-13T04:55:44;100527.31;;;17.68;nan
25560;BME280;13450;49.374;8.584;2023-07-13T04:58:09;100531.44;;;17.70;nan
25560;BME280;13450;49.374;8.584;2023-07-13T05:00:35;100527.31;;;17.68;nan
25560;BME280;13450;49.374;8.584;2023-07-13T05:03:02;100530.97;;;17.73;nan
25560;BME280;13450;49.374;8.584;2023-07-13T05:05:27;100532.50;;;17.81;nan
25560;BME280;13450;49.374;8.584;2023-07-13T05:07:53;100538.06;;;17.86;nan
25560;BME280;13450;49.374;8.584;2023-07-13T05:10:24;100534.22;;;17.94;nan
25560;BME280;13450;49.374;8.584;2023-07-13T05:12:52;100529.03;;;18.04;nan
25560;BME280;13450;49.374;8.584;2023-07-13T05:15:18;100532.97;;;18.21;nan
25560;BME280;13450;49.374;8.584;2023-07-13T05:17:47;100542.53;;;18.35;nan
25560;BME280;13450;49.374;8.584;2023-07-13T05:20:12;100541.09;;;18.45;nan
25560;BME280;13450;49.374;8.584;2023-07-13T05:22:37;100544.88;;;18.55;nan
25560;BME280;13450;49.374;8.584;2023-07-13T05:25:05;100543.47;;;18.65;nan
25560;BME280;13450;49.374;8.584;2023-07-13T05:27:31;100551.47;;;18.72;nan
25560;BME280;13450;49.374;8.584;2023-07-13T05:29:56;100556.66;;;18.73;nan
25560;BME280;13450;49.374;8.584;2023-07-13T05:32:21;100557.50;;;18.74;nan
25560;BME280;13450;49.374;8.584;2023-07-13T05:34:47;100563.13;;;18.84;nan
25560;BME280;13450;49.374;8.584;2023-07-13T05:37:12;100558.66;;;18.90;nan
25560;BME280;13450;49.374;8.584;2023-07-13T05:39:37;100563.09;;;18.96;nan
25560;BME280;13450;49.374;8.584;2023-07-13T05:42:03;100564.50;;;19.11;nan
25560;BME280;13450;49.374;8.584;2023-07-13T05:44:31;100570.59;;;19.30;nan
25560;BME280;13450;49.374;8.584;2023-07-13T05:46:56;100574.59;;;19.39;nan
25560;BME280;13450;49.374;8.584;2023-07-13T05:49:22;100572.94;;;19.38;nan
25560;BME280;13450;49.374;8.584;2023-07-13T05:51:47;100574.59;;;19.39;nan
25560;BME280;13450;49.374;8.584;2023-07-13T05:54:13;100580.81;;;19.52;nan
25560;BME280;13450;49.374;8.584;2023-07-13T05:56:41;100579.72;;;19.53;nan
25560;BME280;13450;49.374;8.584;2023-07-13T05:59:07;100585.75;;;19.55;nan
25560;BME280;13450;49.374;8.584;2023-07-13T06:01:32;100594.97;;;19.54;nan
25560;BME280;13450;49.374;8.584;2023-07-13T06:03:58;100595.81;;;19.42;nan
25560;BME280;13450;49.374;8.584;2023-07-13T06:06:23;100599.97;;;19.33;nan
25560;BME280;13450;49.374;8.584;2023-07-13T06:08:49;100599.78;;;19.23;nan
25560;BME280;13450;49.374;8.584;2023-07-13T06:11:18;100598.50;;;19.13;nan
25560;BME280;13450;49.374;8.584;2023-07-13T06:13:46;100603.22;;;19.06;nan
25560;BME280;13450;49.374;8.584;2023-07-13T06:16:14;100606.50;;;19.08;nan
25560;BME280;13450;49.374;8.584;2023-07-13T06:18:40;100613.41;;;19.04;nan
25560;BME280;13450;49.374;8.584;2023-07-13T06:21:17;100622.06;;;19.01;nan
25560;BME280;13450;49.374;8.584;2023-07-13T06:23:43;100611.53;;;19.04;nan
25560;BME280;13450;49.374;8.584;2023-07-13T06:26:12;100621.47;;;19.11;nan
25560;BME280;13450;49.374;8.584;2023-07-13T06:28:38;100621.56;;;19.28;nan
25560;BME280;13450;49.374;8.584;2023-07-13T06:31:06;100622.00;;;19.37;nan
25560;BME280;13450;49.374;8.584;2023-07-13T06:33:31;100619.75;;;19.45;nan
25560;BME280;13450;49.374;8.584;2023-07-13T06:35:57;100624.81;;;19.54;nan
25560;BME280;13450;49.374;8.584;2023-07-13T06:38:22;100626.34;;;19.50;nan
25560;BME280;13450;49.374;8.584;2023-07-13T06:40:49;100635.81;;;19.47;nan
25560;BME280;13450;49.374;8.584;2023-07-13T06:43:15;100631.19;;;19.47;nan
25560;BME280;13450;49.374;8.584;2023-07-13T06:45:43;100642.22;;;19.58;nan
25560;BME280;13450;49.374;8.584;2023-07-13T06:48:11;100648.84;;;19.62;nan
25560;BME280;13450;49.374;8.584;2023-07-13T06:50:36;100653.97;;;19.76;nan
25560;BME280;13450;49.374;8.584;2023-07-13T06:53:04;100657.88;;;19.80;nan
25560;BME280;13450;49.374;8.584;2023-07-13T06:55:32;100645.47;;;19.84;nan
25560;BME280;13450;49.374;8.584;2023-07-13T06:57:57;100649.25;;;19.83;nan
25560;BME280;13450;49.374;8.584;2023-07-13T07:00:23;100651.56;;;19.91;nan
25560;BME280;13450;49.374;8.584;2023-07-13T07:02:50;100655.09;;;20.04;nan
25560;BME280;13450;49.374;8.584;2023-07-13T07:05:16;100648.78;;;20.15;nan
25560;BME280;13450;49.374;8.584;2023-07-13T07:07:41;100654.88;;;20.22;nan
25560;BME280;13450;49.374;8.584;2023-07-13T07:10:07;100650.75;;;20.20;nan
25560;BME280;13450;49.374;8.584;2023-07-13T07:12:32;100651.00;;;20.18;nan
25560;BME280;13450;49.374;8.584;2023-07-13T07:14:57;100645.25;;;20.15;nan
25560;BME280;13450;49.374;8.584;2023-07-13T07:17:23;100660.88;;;20.24;nan
25560;BME280;13450;49.374;8.584;2023-07-13T07:19:48;100660.09;;;20.41;nan
25560;BME280;13450;49.374;8.584;2023-07-13T07:22:13;100653.84;;;20.58;nan
25560;BME280;13450;49.374;8.584;2023-07-13T07:24:39;100658.44;;;20.74;nan
25560;BME280;13450;49.374;8.584;2023-07-13T07:27:04;100666.09;;;20.95;nan
25560;BME280;13450;49.374;8.584;2023-07-13T07:29:30;100664.34;;;21.06;nan
25560;BME280;13450;49.374;8.584;2023-07-13T07:31:55;100665.63;;;21.20;nan
25560;BME280;13450;49.374;8.584;2023-07-13T07:34:20;100664.66;;;21.26;nan
25560;BME280;13450;49.374;8.584;2023-07-13T07:36:48;100657.38;;;21.32;nan
25560;BME280;13450;49.374;8.584;2023-07-13T07:39:13;100656.53;;;21.32;nan
25560;BME280;13450;49.374;8.584;2023-07-13T07:41:39;100651.94;;;21.32;nan
25560;BME280;13450;49.374;8.584;2023-07-13T07:44:04;100655.88;;;21.41;nan
25560;BME280;13450;49.374;8.584;2023-07-13T07:46:29;100658.50;;;21.59;nan
25560;BME280;13450;49.374;8.584;2023-07-13T07:48:56;100656.34;;;21.61;nan
25560;BME280;13450;49.374;8.584;2023-07-13T07:51:22;100655.19;;;21.56;nan
25560;BME280;13450;49.374;8.584;2023-07-13T07:53:47;100657.94;;;21.56;nan
25560;BME280;13450;49.374;8.584;2023-07-13T07:56:13;100655.72;;;21.53;nan
25560;BME280;13450;49.374;8.584;2023-07-13T07:58:41;100657.44;;;21.60;nan
25560;BME280;13450;49.374;8.584;2023-07-13T08:01:06;100659.72;;;21.68;nan
25560;BME280;13450;49.374;8.584;2023-07-13T08:03:32;100662.97;;;21.70;nan
25560;BME280;13450;49.374;8.584;2023-07-13T08:05:57;100667.47;;;21.76;nan
25560;BME280;13450;49.374;8.584;2023-07-13T08:08:23;100669.31;;;21.98;nan
25560;BME280;13450;49.374;8.584;2023-07-13T08:10:49;100656.34;;;22.11;nan
25560;BME280;13450;49.374;8.584;2023-07-13T08:13:14;100667.97;;;22.28;nan
25560;BME280;13450;49.374;8.584;2023-07-13T08:15:40;100675.16;;;22.40;nan
25560;BME280;13450;49.374;8.584;2023-07-13T08:18:06;100665.44;;;22.49;nan
25560;BME280;13450;49.374;8.584;2023-07-13T08:20:32;100669.53;;;22.52;nan
25560;BME280;13450;49.374;8.584;2023-07-13T08:22:58;100668.84;;;22.62;nan
25560;BME280;13450;49.374;8.584;2023-07-13T08:25:23;100659.84;;;22.66;nan
25560;BME280;13450;49.374;8.584;2023-07-13T08:27:48;100660.84;;;22.88;nan
25560;BME280;13450;49.374;8.584;2023-07-13T08:30:13;100658.19;;;23.03;nan
25560;BME280;13450;49.374;8.584;2023-07-13T08:32:39;100667.25;;;23.14;nan
25560;BME280;13450;49.374;8.584;2023-07-13T08:35:05;100668.69;;;23.27;nan
25560;BME280;13450;49.374;8.584;2023-07-13T08:37:30;100674.16;;;23.27;nan
25560;BME280;13450;49.374;8.584;2023-07-13T08:39:56;100669.25;;;23.29;nan
25560;BME280;13450;49.374;8.584;2023-07-13T08:42:36;100653.69;;;23.30;nan
25560;BME280;13450;49.374;8.584;2023-07-13T08:47:56;100654.03;;;23.33;nan
25560;BME280;13450;49.374;8.584;2023-07-13T08:50:27;100662.75;;;23.35;nan
25560;BME280;13450;49.374;8.584;2023-07-13T08:52:56;100666.13;;;23.58;nan
25560;BME280;13450;49.374;8.584;2023-07-13T08:55:27;100666.69;;;23.66;nan
25560;BME280;13450;49.374;8.584;2023-07-13T08:58:02;100665.88;;;23.65;nan
25560;BME280;13450;49.374;8.584;2023-07-13T09:00:39;100660.72;;;23.69;nan
25560;BME280;13450;49.374;8.584;2023-07-13T09:03:15;100661.25;;;23.66;nan
25560;BME280;13450;49.374;8.584;2023-07-13T09:05:42;100661.25;;;23.76;nan
25560;BME280;13450;49.374;8.584;2023-07-13T09:08:25;100663.16;;;23.70;nan
25560;BME280;13450;49.374;8.584;2023-07-13T09:11:02;100667.28;;;23.78;nan
25560;BME280;13450;49.374;8.584;2023-07-13T09:13:38;100658.03;;;23.95;nan
25560;BME280;13450;49.374;8.584;2023-07-13T09:16:06;100648.19;;;23.99;nan
25560;BME280;13450;49.374;8.584;2023-07-13T09:18:37;100649.34;;;24.24;nan
25560;BME280;13450;49.374;8.584;2023-07-13T09:21:14;100644.44;;;24.47;nan
25560;BME280;13450;49.374;8.584;2023-07-13T09:23:40;100640.88;;;24.51;nan
25560;BME280;13450;49.374;8.584;2023-07-13T09:26:21;100661.66;;;24.47;nan
25560;BME280;13450;49.374;8.584;2023-07-13T09:28:53;100653.72;;;24.66;nan
25560;BME280;13450;49.374;8.584;2023-07-13T09:31:21;100656.16;;;24.94;nan
25560;BME280;13450;49.374;8.584;2023-07-13T09:33:52;100650.94;;;25.03;nan
25560;BME280;13450;49.374;8.584;2023-07-13T09:36:38;100652.03;;;25.02;nan
25560;BME280;13450;49.374;8.584;2023-07-13T09:39:48;100664.56;;;25.24;nan
25560;BME280;13450;49.374;8.584;2023-07-13T09:44:31;100646.94;;;25.51;nan
25560;BME280;13450;49.374;8.584;2023-07-13T09:46:58;100645.16;;;25.81;nan
25560;BME280;13450;49.374;8.584;2023-07-13T09:49:33;100644.56;;;25.84;nan
25560;BME280;13450;49.374;8.584;2023-07-13T09:52:05;100645.84;;;26.02;nan
25560;BME280;13450;49.374;8.584;2023-07-13T09:54:33;100643.94;;;25.97;nan
25560;BME280;13450;49.374;8.584;2023-07-13T09:57:00;100634.69;;;25.88;nan
25560;BME280;13450;49.374;8.584;2023-07-13T09:59:33;100643.34;;;25.66;nan
25560;BME280;13450;49.374;8.584;2023-07-13T10:01:59;100651.91;;;25.38;nan
25560;BME280;13450;49.374;8.584;2023-07-13T10:04:32;100647.59;;;25.21;nan
25560;BME280;13450;49.374;8.584;2023-07-13T10:07:06;100647.59;;;25.16;nan
25560;BME280;13450;49.374;8.584;2023-07-13T10:09:32;100650.91;;;25.18;nan
25560;BME280;13450;49.374;8.584;2023-07-13T10:11:57;100651.41;;;25.26;nan
25560;BME280;13450;49.374;8.584;2023-07-13T10:14:23;100659.72;;;24.84;nan
25560;BME280;13450;49.374;8.584;2023-07-13T10:16:55;100649.88;;;24.93;nan
25560;BME280;13450;49.374;8.584;2023-07-13T10:19:28;100649.78;;;25.19;nan
25560;BME280;13450;49.374;8.584;2023-07-13T10:21:58;100651.97;;;25.23;nan
25560;BME280;13450;49.374;8.584;2023-07-13T10:24:27;100651.88;;;25.43;nan
25560;BME280;13450;49.374;8.584;2023-07-13T10:27:05;100645.16;;;25.76;nan
25560;BME280;13450;49.374;8.584;2023-07-13T10:29:45;100640.09;;;25.98;nan
25560;BME280;13450;49.374;8.584;2023-07-13T10:32:12;100637.75;;;26.27;nan
25560;BME280;13450;49.374;8.584;2023-07-13T10:34:39;100638.22;;;26.34;nan
25560;BME280;13450;49.374;8.584;2023-07-13T10:37:07;100634.00;;;26.47;nan
25560;BME280;13450;49.374;8.584;2023-07-13T10:39:41;100642.97;;;26.53;nan
25560;BME280;13450;49.374;8.584;2023-07-13T10:42:09;100639.38;;;26.22;nan
25560;BME280;13450;49.374;8.584;2023-07-13T10:44:39;100633.16;;;26.11;nan
25560;BME280;13450;49.374;8.584;2023-07-13T10:47:08;100635.63;;;26.13;nan
25560;BME280;13450;49.374;8.584;2023-07-13T10:49:41;100643.56;;;26.09;nan
25560;BME280;13450;49.374;8.584;2023-07-13T10:55:31;100642.66;;;26.24;nan
25560;BME280;13450;49.374;8.584;2023-07-13T10:57:59;100642.06;;;26.33;nan
25560;BME280;13450;49.374;8.584;2023-07-13T11:00:25;100647.78;;;26.66;nan
25560;BME280;13450;49.374;8.584;2023-07-13T11:02:59;100636.09;;;26.85;nan
25560;BME280;13450;49.374;8.584;2023-07-13T11:05:30;100629.28;;;27.07;nan
25560;BME280;13450;49.374;8.584;2023-07-13T11:08:33;100634.78;;;27.07;nan
25560;BME280;13450;49.374;8.584;2023-07-13T11:10:58;100634.06;;;26.66;nan
25560;BME280;13450;49.374;8.584;2023-07-13T11:16:37;100641.78;;;25.94;nan
25560;BME280;13450;49.374;8.584;2023-07-13T11:21:28;100641.00;;;26.23;nan
25560;BME280;13450;49.374;8.584;2023-07-13T11:24:17;100641.34;;;26.51;nan
25560;BME280;13450;49.374;8.584;2023-07-13T11:31:51;100631.25;;;26.76;nan
25560;BME280;13450;49.374;8.584;2023-07-13T11:34:26;100643.69;;;26.63;nan
25560;BME280;13450;49.374;8.584;2023-07-13T11:36:52;100636.78;;;28.41;nan
25560;BME280;13450;49.374;8.584;2023-07-13T11:39:21;100639.41;;;30.09;nan
25560;BME280;13450;49.374;8.584;2023-07-13T11:41:55;100638.06;;;30.21;nan
25560;BME280;13450;49.374;8.584;2023-07-13T11:44:24;100631.94;;;29.64;nan
25560;BME280;13450;49.374;8.584;2023-07-13T11:46:52;100625.13;;;32.14;nan
25560;BME280;13450;49.374;8.584;2023-07-13T11:49:20;100630.56;;;33.06;nan
25560;BME280;13450;49.374;8.584;2023-07-13T11:51:46;100636.22;;;34.37;nan
25560;BME280;13450;49.374;8.584;2023-07-13T11:56:50;100619.59;;;32.79;nan
25560;BME280;13450;49.374;8.584;2023-07-13T11:59:15;100625.22;;;33.73;nan
25560;BME280;13450;49.374;8.584;2023-07-13T12:01:53;100622.75;;;34.73;nan
25560;BME280;13450;49.374;8.584;2023-07-13T12:04:31;100616.75;;;34.83;nan
25560;BME280;13450;49.374;8.584;2023-07-13T12:07:12;100630.25;;;36.05;nan
25560;BME280;13450;49.374;8.584;2023-07-13T12:09:42;100618.91;;;36.26;nan
25560;BME280;13450;49.374;8.584;2023-07-13T12:12:14;100627.34;;;37.86;nan
25560;BME280;13450;49.374;8.584;2023-07-13T12:14:40;100626.22;;;37.51;nan
25560;BME280;13450;49.374;8.584;2023-07-13T12:17:19;100620.94;;;35.43;nan
25560;BME280;13450;49.374;8.584;2023-07-13T12:19:45;100615.16;;;34.49;nan
25560;BME280;13450;49.374;8.584;2023-07-13T12:22:12;100634.16;;;33.58;nan
25560;BME280;13450;49.374;8.584;2023-07-13T12:24:40;100628.91;;;33.35;nan
25560;BME280;13450;49.374;8.584;2023-07-13T12:27:19;100624.53;;;32.95;nan
25560;BME280;13450;49.374;8.584;2023-07-13T12:30:02;100620.38;;;32.32;nan
25560;BME280;13450;49.374;8.584;2023-07-13T12:32:30;100624.66;;;31.67;nan
25560;BME280;13450;49.374;8.584;2023-07-13T12:35:13;100619.56;;;31.25;nan
25560;BME280;13450;49.374;8.584;2023-07-13T12:37:43;100624.31;;;30.52;nan
25560;BME280;13450;49.374;8.584;2023-07-13T12:40:29;100625.25;;;30.02;nan
25560;BME280;13450;49.374;8.584;2023-07-13T12:46:39;100625.44;;;30.83;nan
25560;BME280;13450;49.374;8.584;2023-07-13T12:49:06;100623.94;;;33.19;nan
25560;BME280;13450;49.374;8.584;2023-07-13T12:51:32;100628.84;;;32.44;nan
25560;BME280;13450;49.374;8.584;2023-07-13T12:54:17;100627.41;;;31.76;nan
25560;BME280;13450;49.374;8.584;2023-07-13T12:56:43;100634.00;;;30.18;nan
25560;BME280;13450;49.374;8.584;2023-07-13T12:59:18;100634.59;;;29.55;nan
25560;BME280;13450;49.374;8.584;2023-07-13T13:01:43;100635.44;;;29.14;nan
25560;BME280;13450;49.374;8.584;2023-07-13T13:04:09;100647.56;;;28.84;nan
25560;BME280;13450;49.374;8.584;2023-07-13T13:06:36;100647.91;;;27.78;nan
25560;BME280;13450;49.374;8.584;2023-07-13T13:09:03;100646.06;;;27.05;nan
25560;BME280;13450;49.374;8.584;2023-07-13T13:11:34;100643.53;;;27.33;nan
25560;BME280;13450;49.374;8.584;2023-07-13T13:14:00;100639.63;;;27.59;nan
25560;BME280;13450;49.374;8.584;2023-07-13T13:16:30;100633.81;;;27.85;nan
25560;BME280;13450;49.374;8.584;2023-07-13T13:19:10;100638.28;;;28.80;nan
25560;BME280;13450;49.374;8.584;2023-07-13T13:21:39;100646.44;;;29.56;nan
25560;BME280;13450;49.374;8.584;2023-07-13T13:24:12;100643.53;;;30.35;nan
25560;BME280;13450;49.374;8.584;2023-07-13T13:26:38;100658.16;;;30.67;nan
25560;BME280;13450;49.374;8.584;2023-07-13T13:29:12;100649.06;;;29.75;nan
25560;BME280;13450;49.374;8.584;2023-07-13T13:31:39;100643.41;;;29.80;nan
25560;BME280;13450;49.374;8.584;2023-07-13T13:34:07;100633.66;;;29.97;nan
25560;BME280;13450;49.374;8.584;2023-07-13T13:36:33;100641.47;;;29.81;nan
25560;BME280;13450;49.374;8.584;2023-07-13T13:38:58;100645.75;;;29.22;nan